Time;durP1;ratioP1;P1;durP2;ratioP2;P2;SDS_P1;SDS_P2;PMS_P1;PMS_P2;Temp;Humidity;BMP_temperature;BMP_pressure;BME280_temperature;BME280_humidity;BME280_pressure;Samples;Min_cycle;Max_cycle;Signal;HPM_P1;HPM_P2
2023/07/28 00:01:08;;;;;;;1999.90;999.90;;;20.20;99.90;;;;;;5033642;28;20021;-74
2023/07/28 00:03:33;;;;;;;1999.90;999.90;;;20.20;99.90;;;;;;5015812;28;20057;-71
2023/07/28 00:05:59;;;;;;;1999.90;999.90;;;20.10;99.90;;;;;;5013659;28;20064;-71
2023/07/28 00:08:24;;;;;;;1999.90;999.90;;;20.10;99.90;;;;;;5013545;28;20030;-71
2023/07/28 00:10:50;;;;;;;1999.90;999.90;;;20.20;99.90;;;;;;5026240;28;20029;-71
2023/07/28 00:13:15;;;;;;;1999.90;999.90;;;20.20;99.90;;;;;;5033372;28;20024;-72
2023/07/28 00:15:41;;;;;;;1999.90;999.90;;;20.20;99.90;;;;;;5033560;28;20435;-74
2023/07/28 00:18:06;;;;;;;1999.90;999.90;;;20.20;99.90;;;;;;5025558;28;20032;-71
2023/07/28 00:20:32;;;;;;;1999.90;999.90;;;20.20;99.90;;;;;;5034525;28;20021;-71
2023/07/28 00:22:58;;;;;;;1999.90;999.90;;;20.20;99.90;;;;;;5034540;28;20389;-72
2023/07/28 00:25:24;;;;;;;1999.90;999.90;;;20.20;99.90;;;;;;5015256;28;20026;-72
2023/07/28 00:27:50;;;;;;;1999.90;999.90;;;20.10;99.90;;;;;;5033440;28;20033;-71
2023/07/28 00:30:15;;;;;;;1999.90;999.90;;;20.20;99.90;;;;;;5033188;28;20033;-75
2023/07/28 00:32:41;;;;;;;1999.90;999.90;;;20.20;99.90;;;;;;5032964;28;20038;-72
2023/07/28 00:35:07;;;;;;;1999.90;999.90;;;20.20;99.90;;;;;;5031473;28;20033;-72
2023/07/28 00:37:33;;;;;;;1999.90;999.90;;;20.20;99.90;;;;;;5032943;28;20025;-72
2023/07/28 00:39:58;;;;;;;1999.90;999.90;;;20.20;99.90;;;;;;5032979;28;20036;-75
2023/07/28 00:42:24;;;;;;;1999.90;999.90;;;20.20;99.90;;;;;;5032885;28;20107;-71
2023/07/28 00:44:50;;;;;;;1999.90;999.90;;;20.30;99.90;;;;;;5015097;28;20025;-71
2023/07/28 00:47:15;;;;;;;1999.90;999.90;;;20.30;99.90;;;;;;5032723;28;20530;-71
2023/07/28 00:49:41;;;;;;;1999.90;999.90;;;20.30;99.90;;;;;;5032673;28;20040;-71
2023/07/28 00:52:08;;;;;;;1999.90;999.90;;;20.30;99.90;;;;;;5032891;28;20104;-70
2023/07/28 00:54:34;;;;;;;1999.90;999.90;;;20.40;99.90;;;;;;5032501;28;20040;-70
2023/07/28 00:57:01;;;;;;;1999.90;999.90;;;20.30;99.90;;;;;;5032119;28;20032;-71
2023/07/28 00:59:27;;;;;;;1999.90;999.90;;;20.40;99.90;;;;;;5032630;28;20024;-70
2023/07/28 01:01:52;;;;;;;1999.90;999.90;;;20.40;99.90;;;;;;5032609;28;20396;-70
2023/07/28 01:04:19;;;;;;;1999.90;999.90;;;20.40;99.90;;;;;;5032812;28;20022;-70
2023/07/28 01:07:08;;;;;;;1999.90;999.90;;;20.40;99.90;;;;;;5032396;28;20059;-70
2023/07/28 01:10:05;;;;;;;1999.90;999.90;;;20.50;99.90;;;;;;5032477;28;20021;-70
2023/07/28 01:12:31;;;;;;;1999.90;999.90;;;20.50;99.90;;;;;;5024100;28;20045;-70
2023/07/28 01:14:56;;;;;;;1999.90;999.90;;;20.50;99.90;;;;;;5032528;28;20033;-70
2023/07/28 01:17:23;;;;;;;1999.90;999.90;;;20.50;99.90;;;;;;5032010;28;20025;-70
2023/07/28 01:19:50;;;;;;;1999.90;999.90;;;20.50;99.90;;;;;;5032609;28;20026;-75
2023/07/28 01:22:30;;;;;;;1999.90;999.90;;;20.50;99.90;;;;;;5032618;28;20033;-70
2023/07/28 01:25:33;;;;;;;1999.90;999.90;;;20.50;99.90;;;;;;5033305;28;20065;-70
2023/07/28 01:28:00;;;;;;;1999.90;999.90;;;20.60;99.90;;;;;;5032682;28;20030;-70
2023/07/28 01:30:27;;;;;;;1999.90;999.90;;;20.60;99.90;;;;;;5032483;28;20029;-71
2023/07/28 01:32:57;;;;;;;1999.90;999.90;;;20.60;99.90;;;;;;5036478;28;20029;-75
2023/07/28 01:35:25;;;;;;;1999.90;999.90;;;20.60;99.90;;;;;;5035879;28;20094;-70
2023/07/28 01:37:50;;;;;;;1999.90;999.90;;;20.60;99.90;;;;;;5036135;28;20491;-70
2023/07/28 01:40:19;;;;;;;1999.90;999.90;;;20.60;99.90;;;;;;5018477;28;20021;-70
2023/07/28 01:42:45;;;;;;;1999.90;999.90;;;20.60;99.90;;;;;;5036058;28;20046;-70
2023/07/28 01:45:11;;;;;;;1999.90;999.90;;;20.60;99.90;;;;;;5035982;28;20036;-70
2023/07/28 01:47:37;;;;;;;1999.90;999.90;;;20.70;99.90;;;;;;5036068;28;20029;-70
2023/07/28 01:50:03;;;;;;;1999.90;999.90;;;20.70;99.90;;;;;;5036024;28;20030;-70
2023/07/28 01:52:28;;;;;;;1999.90;999.90;;;20.70;99.90;;;;;;5055358;28;20033;-70
2023/07/28 01:54:54;;;;;;;1999.90;999.90;;;20.70;99.90;;;;;;5055893;28;20029;-70
2023/07/28 01:57:19;;;;;;;1999.90;999.90;;;20.70;99.90;;;;;;5055745;28;20054;-70
2023/07/28 01:59:45;;;;;;;1999.90;999.90;;;20.70;99.90;;;;;;5037627;28;20565;-77
2023/07/28 02:02:11;;;;;;;1999.90;999.90;;;20.80;99.90;;;;;;5055840;28;20059;-70
2023/07/28 02:04:36;;;;;;;1999.90;999.90;;;20.80;99.90;;;;;;5055973;28;20052;-71
2023/07/28 02:07:02;;;;;;;1999.90;999.90;;;20.80;99.90;;;;;;5055741;28;20116;-71
2023/07/28 02:09:27;;;;;;;1999.90;999.90;;;20.80;99.90;;;;;;5035768;28;20041;-71
2023/07/28 02:11:53;;;;;;;1999.90;999.90;;;20.80;99.90;;;;;;5017782;28;20067;-75
2023/07/28 02:14:19;;;;;;;1999.90;999.90;;;20.80;99.90;;;;;;5035474;28;20029;-71
2023/07/28 02:16:44;;;;;;;1999.90;999.90;;;20.80;99.90;;;;;;5017861;28;20030;-71
2023/07/28 02:19:10;;;;;;;1999.90;999.90;;;20.80;99.90;;;;;;5035448;28;20435;-71
2023/07/28 02:21:35;;;;;;;1999.90;999.90;;;20.80;99.90;;;;;;5035487;28;20029;-72
2023/07/28 02:24:01;;;;;;;1999.90;999.90;;;20.80;99.90;;;;;;5035401;28;20025;-72
2023/07/28 02:26:27;;;;;;;1999.90;999.90;;;20.80;99.90;;;;;;5035203;28;20079;-77
2023/07/28 02:28:52;;;;;;;1999.90;999.90;;;20.80;99.90;;;;;;5035631;28;20034;-72
2023/07/28 02:31:18;;;;;;;1999.90;999.90;;;20.80;99.90;;;;;;5017392;28;20037;-72
2023/07/28 02:33:43;;;;;;;1999.90;999.90;;;20.90;99.90;;;;;;5035098;28;20057;-71
2023/07/28 02:36:09;;;;;;;1999.90;999.90;;;20.90;99.90;;;;;;5035144;28;20032;-71
2023/07/28 02:38:34;;;;;;;1999.90;999.90;;;20.90;99.90;;;;;;5017366;28;20083;-78
2023/07/28 02:41:00;;;;;;;1999.90;999.90;;;20.90;99.90;;;;;;5034999;28;20033;-71
2023/07/28 02:43:26;;;;;;;1999.90;999.90;;;20.90;99.90;;;;;;5033238;28;20127;-71
2023/07/28 02:45:56;;;;;;;1999.90;999.90;;;21.00;99.90;;;;;;5034404;28;20025;-73
2023/07/28 02:48:22;;;;;;;1999.90;999.90;;;21.00;99.90;;;;;;5035032;28;20395;-72
2023/07/28 02:50:50;;;;;;;1999.90;999.90;;;21.00;99.90;;;;;;5035057;28;20032;-71
2023/07/28 02:53:16;;;;;;;1999.90;999.90;;;21.00;99.90;;;;;;5035134;28;20523;-71
2023/07/28 02:55:43;;;;;;;1999.90;999.90;;;21.10;99.90;;;;;;5016801;28;20120;-71
2023/07/28 02:58:09;;;;;;;1999.90;999.90;;;21.10;99.90;;;;;;5034540;28;20018;-72
2023/07/28 03:00:38;;;;;;;1999.90;999.90;;;21.10;99.90;;;;;;5034777;28;20052;-72
2023/07/28 03:03:04;;;;;;;1999.90;999.90;;;21.10;99.90;;;;;;5034582;28;20072;-79
2023/07/28 03:05:31;;;;;;;1999.90;999.90;;;21.10;99.90;;;;;;5016821;28;20042;-72
2023/07/28 03:07:57;;;;;;;1999.90;999.90;;;21.10;99.90;;;;;;5016619;28;20124;-72
2023/07/28 03:10:23;;;;;;;1999.90;999.90;;;21.10;99.90;;;;;;5034348;28;20159;-72
2023/07/28 03:12:48;;;;;;;1999.90;999.90;;;21.10;99.90;;;;;;5034214;28;20459;-72
2023/07/28 03:15:14;;;;;;;1999.90;999.90;;;21.20;99.90;;;;;;5034148;28;20085;-72
2023/07/28 03:17:39;;;;;;;1999.90;999.90;;;21.20;99.90;;;;;;5016658;28;20120;-72
2023/07/28 03:20:06;;;;;;;1999.90;999.90;;;21.20;99.90;;;;;;5033717;28;20108;-72
2023/07/28 03:22:31;;;;;;;1999.90;999.90;;;21.20;99.90;;;;;;5013043;28;20018;-72
2023/07/28 03:24:57;;;;;;;1999.90;999.90;;;21.20;99.90;;;;;;5021177;28;20032;-72
2023/07/28 03:27:23;;;;;;;1999.90;999.90;;;21.10;99.90;;;;;;5034250;28;20400;-72
2023/07/28 03:29:48;;;;;;;1999.90;999.90;;;21.10;99.90;;;;;;5034442;28;20025;-80
2023/07/28 03:32:14;;;;;;;1999.90;999.90;;;21.10;99.90;;;;;;5016395;28;20396;-79
2023/07/28 03:34:40;;;;;;;1999.90;999.90;;;21.10;99.90;;;;;;5033832;28;20036;-72
2023/07/28 03:37:05;;;;;;;1999.90;999.90;;;21.10;99.90;;;;;;5033677;28;20024;-73
2023/07/28 03:39:31;;;;;;;1999.90;999.90;;;21.10;99.90;;;;;;5034336;28;20080;-73
2023/07/28 03:41:57;;;;;;;1999.90;999.90;;;21.10;99.90;;;;;;5033889;28;20033;-72
2023/07/28 03:44:23;;;;;;;1999.90;999.90;;;21.10;99.90;;;;;;5033968;28;20487;-79
2023/07/28 03:46:48;;;;;;;1999.90;999.90;;;21.10;99.90;;;;;;5033850;28;20025;-72
2023/07/28 03:49:14;;;;;;;1999.90;999.90;;;21.20;99.90;;;;;;5033750;28;20100;-73
2023/07/28 03:51:40;;;;;;;1999.90;999.90;;;21.20;99.90;;;;;;5033651;28;20443;-72
2023/07/28 03:54:05;;;;;;;1999.90;999.90;;;21.20;99.90;;;;;;5033221;28;20396;-72
2023/07/28 03:56:31;;;;;;;1999.90;999.90;;;21.20;99.90;;;;;;5033649;28;20031;-72
2023/07/28 03:58:57;;;;;;;1999.90;999.90;;;21.20;99.90;;;;;;5015883;28;20018;-72
2023/07/28 04:01:22;;;;;;;1999.90;999.90;;;21.20;99.90;;;;;;5033471;28;20488;-72
2023/07/28 04:03:48;;;;;;;1999.90;999.90;;;21.20;99.90;;;;;;5033557;28;20029;-73
2023/07/28 04:06:13;;;;;;;1999.90;999.90;;;21.20;99.90;;;;;;5033771;28;20060;-72
2023/07/28 04:08:40;;;;;;;1999.90;999.90;;;21.20;99.90;;;;;;5033247;28;20104;-79
2023/07/28 04:11:05;;;;;;;1999.90;999.90;;;21.20;99.90;;;;;;5033148;28;20032;-79
2023/07/28 04:13:31;;;;;;;1999.90;999.90;;;21.20;99.90;;;;;;5033441;28;20025;-72
2023/07/28 04:15:57;;;;;;;1999.90;999.90;;;21.20;99.90;;;;;;5033222;28;20087;-72
2023/07/28 04:18:23;;;;;;;1999.90;999.90;;;21.20;99.90;;;;;;5048986;28;20091;-72
2023/07/28 04:20:48;;;;;;;1999.90;999.90;;;21.20;99.90;;;;;;5034369;28;20044;-73
2023/07/28 04:23:14;;;;;;;1999.90;999.90;;;21.20;99.90;;;;;;5033250;28;20064;-79
2023/07/28 04:25:39;;;;;;;1999.90;999.90;;;21.20;99.90;;;;;;5033103;28;20034;-73
2023/07/28 04:28:05;;;;;;;1999.90;999.90;;;21.10;99.90;;;;;;5033145;28;20025;-72
2023/07/28 04:30:31;;;;;;;1999.90;999.90;;;21.10;99.90;;;;;;5033343;28;20503;-73
2023/07/28 04:32:56;;;;;;;1999.90;999.90;;;21.10;99.90;;;;;;5015423;28;20033;-73
2023/07/28 04:35:22;;;;;;;1999.90;999.90;;;21.10;99.90;;;;;;5032676;28;20029;-73
2023/07/28 04:37:47;;;;;;;1999.90;999.90;;;21.10;99.90;;;;;;5032855;28;20057;-79
2023/07/28 04:40:13;;;;;;;1999.90;999.90;;;21.10;99.90;;;;;;5015068;28;20033;-72
2023/07/28 04:42:39;;;;;;;1999.90;999.90;;;21.10;99.90;;;;;;5032846;28;20049;-72
2023/07/28 04:45:05;;;;;;;1999.90;999.90;;;21.10;99.90;;;;;;5015081;28;20061;-72
2023/07/28 04:47:31;;;;;;;1999.90;999.90;;;21.10;99.90;;;;;;5014611;28;20513;-80
2023/07/28 04:49:56;;;;;;;1999.90;999.90;;;21.10;99.90;;;;;;5032784;28;20033;-72
2023/07/28 04:52:22;;;;;;;1999.90;999.90;;;21.10;99.90;;;;;;5032564;28;20033;-72
2023/07/28 04:54:47;;;;;;;1999.90;999.90;;;21.10;99.90;;;;;;5032996;28;20030;-72
2023/07/28 04:57:13;;;;;;;1999.90;999.90;;;21.20;99.90;;;;;;5012251;28;20156;-72
2023/07/28 04:59:39;;;;;;;1999.90;999.90;;;21.10;99.90;;;;;;5014649;28;20430;-72
2023/07/28 05:02:05;;;;;;;1999.90;999.90;;;21.20;99.90;;;;;;5032678;28;20096;-72
2023/07/28 05:04:30;;;;;;;1999.90;999.90;;;21.20;99.90;;;;;;5032138;28;20037;-72
2023/07/28 05:06:56;;;;;;;1999.90;999.90;;;21.10;99.90;;;;;;5042450;28;20036;-73
2023/07/28 05:09:21;;;;;;;1999.90;999.90;;;21.20;99.90;;;;;;5018854;28;20021;-73
2023/07/28 05:11:47;;;;;;;1999.90;999.90;;;21.20;99.90;;;;;;5036394;28;20036;-73
2023/07/28 05:14:12;;;;;;;1999.90;999.90;;;21.20;99.90;;;;;;5036670;28;20127;-79
2023/07/28 05:16:38;;;;;;;1999.90;999.90;;;21.20;99.90;;;;;;5036701;28;20021;-79
2023/07/28 05:19:07;;;;;;;1999.90;999.90;;;21.20;99.90;;;;;;5036520;28;20033;-72
2023/07/28 05:21:32;;;;;;;1999.90;999.90;;;21.20;99.90;;;;;;5044470;28;20100;-72
2023/07/28 05:23:58;;;;;;;1999.90;999.90;;;21.20;99.90;;;;;;5027785;28;20551;-72
2023/07/28 05:26:24;;;;;;;1999.90;999.90;;;21.20;99.90;;;;;;5037581;28;20032;-79
2023/07/28 05:28:50;;;;;;;1999.90;999.90;;;21.20;99.90;;;;;;5036141;28;20025;-79
2023/07/28 05:31:16;;;;;;;1999.90;999.90;;;21.20;99.90;;;;;;5034583;28;20476;-73
2023/07/28 05:33:42;;;;;;;1999.90;999.90;;;21.20;99.90;;;;;;5042023;28;20039;-72
2023/07/28 05:36:07;;;;;;;1999.90;999.90;;;21.30;99.90;;;;;;5035870;28;20515;-73
2023/07/28 05:38:33;;;;;;;1999.90;999.90;;;21.30;99.90;;;;;;5036236;28;20083;-71
2023/07/28 05:41:03;;;;;;;1999.90;999.90;;;21.30;99.90;;;;;;5018080;28;20025;-74
2023/07/28 05:43:29;;;;;;;1999.90;999.90;;;21.30;99.90;;;;;;5016935;28;20458;-73
2023/07/28 05:45:57;;;;;;;1999.90;999.90;;;21.40;99.90;;;;;;5021331;28;20484;-73
2023/07/28 05:48:23;;;;;;;1999.90;999.90;;;21.40;99.90;;;;;;5038737;28;20040;-72
2023/07/28 05:50:48;;;;;;;1999.90;999.90;;;21.40;99.90;;;;;;5035789;28;20029;-71
2023/07/28 05:53:14;;;;;;;1999.90;999.90;;;21.50;99.90;;;;;;5015622;28;20068;-72
2023/07/28 05:55:40;;;;;;;1999.90;999.90;;;21.50;99.90;;;;;;5035101;28;20029;-72
2023/07/28 05:58:06;;;;;;;1999.90;999.90;;;21.60;99.90;;;;;;5035109;28;20044;-72
2023/07/28 06:00:31;;;;;;;1999.90;999.90;;;21.60;99.90;;;;;;5035581;28;20025;-72
2023/07/28 06:02:57;;;;;;;1999.90;999.90;;;21.50;99.90;;;;;;5017373;28;20037;-72
2023/07/28 06:05:23;;;;;;;1999.90;999.90;;;21.60;99.90;;;;;;5017750;28;20159;-76
2023/07/28 06:07:48;;;;;;;1999.90;999.90;;;21.60;99.90;;;;;;5040795;28;20120;-77
2023/07/28 06:10:14;;;;;;;1999.90;999.90;;;21.60;99.90;;;;;;5047335;28;20075;-71
2023/07/28 06:12:39;;;;;;;1999.90;999.90;;;21.60;99.90;;;;;;5016873;28;20037;-72
2023/07/28 06:15:06;;;;;;;1999.90;999.90;;;21.60;99.90;;;;;;5050313;28;20087;-72
2023/07/28 06:17:31;;;;;;;1999.90;999.90;;;21.50;99.90;;;;;;5045571;28;20021;-72
2023/07/28 06:19:57;;;;;;;1999.90;999.90;;;21.60;99.90;;;;;;5016031;28;20446;-72
2023/07/28 06:22:23;;;;;;;1999.90;999.90;;;21.60;99.90;;;;;;5015518;28;20037;-75
2023/07/28 06:24:48;;;;;;;1999.90;999.90;;;21.60;99.90;;;;;;5034125;28;20026;-72
2023/07/28 06:27:14;;;;;;;1999.90;999.90;;;21.50;99.90;;;;;;5034080;28;20404;-73
2023/07/28 06:29:40;;;;;;;1999.90;999.90;;;21.50;99.90;;;;;;5034346;28;20392;-73
2023/07/28 06:32:06;;;;;;;1999.90;999.90;;;21.50;99.90;;;;;;5033859;28;20029;-73
2023/07/28 06:34:31;;;;;;;1999.90;999.90;;;21.50;99.90;;;;;;5034162;28;20018;-72
2023/07/28 06:36:57;;;;;;;1999.90;999.90;;;21.50;99.90;;;;;;5033337;28;20048;-73
2023/07/28 06:39:24;;;;;;;1999.90;999.90;;;21.50;99.90;;;;;;5034265;28;20100;-72
2023/07/28 06:41:50;;;;;;;1999.90;999.90;;;21.50;99.90;;;;;;5015320;28;20415;-72
2023/07/28 06:44:15;;;;;;;1999.90;999.90;;;21.60;99.90;;;;;;5033780;28;20180;-73
2023/07/28 06:46:41;;;;;;;1999.90;999.90;;;21.60;99.90;;;;;;5032730;28;20037;-73
2023/07/28 06:49:07;;;;;;;1999.90;999.90;;;21.70;99.90;;;;;;5015806;28;20061;-72
2023/07/28 06:51:33;;;;;;;1999.90;999.90;;;21.70;99.90;;;;;;5045486;28;20399;-72
2023/07/28 06:53:59;;;;;;;1999.90;999.90;;;21.60;99.90;;;;;;5035938;28;20512;-72
2023/07/28 06:56:24;;;;;;;1999.90;999.90;;;21.50;99.90;;;;;;5030166;28;20094;-73
2023/07/28 06:58:50;;;;;;;1999.90;999.90;;;21.60;99.90;;;;;;5030002;28;20040;-73
2023/07/28 07:01:16;;;;;;;1999.90;999.90;;;21.60;99.90;;;;;;5016783;28;20405;-71
2023/07/28 07:03:42;;;;;;;1999.90;999.90;;;21.60;99.90;;;;;;5021068;28;20033;-72
2023/07/28 07:06:07;;;;;;;1999.90;999.90;;;21.70;99.90;;;;;;5035509;28;20040;-72
2023/07/28 07:08:33;;;;;;;1999.90;999.90;;;21.70;99.90;;;;;;5032407;28;20484;-72
2023/07/28 07:10:59;;;;;;;1999.90;999.90;;;21.90;99.90;;;;;;5014116;28;20063;-72
2023/07/28 07:13:24;;;;;;;1999.90;999.90;;;21.90;99.90;;;;;;5032619;28;20029;-73
2023/07/28 07:15:50;;;;;;;1999.90;999.90;;;21.80;99.90;;;;;;5032730;28;20033;-72
2023/07/28 07:18:16;;;;;;;1999.90;999.90;;;21.70;99.90;;;;;;5032853;28;20108;-72
2023/07/28 07:20:42;;;;;;;1999.90;999.90;;;21.70;99.90;;;;;;5032391;28;20032;-72
2023/07/28 07:23:07;;;;;;;1999.90;999.90;;;21.70;99.90;;;;;;5035016;28;20429;-72
2023/07/28 07:25:33;;;;;;;1999.90;999.90;;;21.70;99.90;;;;;;5033115;28;20029;-73
2023/07/28 07:27:59;;;;;;;1999.90;999.90;;;21.70;99.90;;;;;;5032363;28;20096;-72
2023/07/28 07:30:24;;;;;;;1999.90;999.90;;;21.60;99.90;;;;;;5032876;28;20116;-72
2023/07/28 07:32:50;;;;;;;1999.90;999.90;;;21.60;99.90;;;;;;5011517;28;20022;-73
2023/07/28 07:35:15;;;;;;;1999.90;999.90;;;21.70;99.90;;;;;;5016047;28;20116;-72
2023/07/28 07:37:41;;;;;;;1999.90;999.90;;;21.70;99.90;;;;;;5032557;28;20034;-71
2023/07/28 07:40:07;;;;;;;1999.90;999.90;;;21.60;99.90;;;;;;5033408;28;20124;-72
2023/07/28 07:42:45;;;;;;;1999.90;999.90;;;21.60;99.90;;;;;;5021846;28;20046;-72
2023/07/28 07:45:12;;;;;;;1999.90;999.90;;;21.60;99.90;;;;;;5035708;28;20515;-72
2023/07/28 07:47:39;;;;;;;1999.90;999.90;;;21.60;99.90;;;;;;5036970;28;20056;-71
2023/07/28 07:50:07;;;;;;;1999.90;999.90;;;21.50;99.90;;;;;;5019002;28;20716;-72
2023/07/28 07:52:33;;;;;;;1999.90;999.90;;;21.50;99.90;;;;;;5042110;28;20033;-71
2023/07/28 07:54:58;;;;;;;1999.90;999.90;;;21.50;99.90;;;;;;5035804;28;20025;-72
2023/07/28 07:57:24;;;;;;;1999.90;999.90;;;21.60;99.90;;;;;;5044202;28;20432;-71
2023/07/28 07:59:49;;;;;;;1999.90;999.90;;;21.60;99.90;;;;;;5031637;28;20041;-71
2023/07/28 08:02:15;;;;;;;1999.90;999.90;;;21.70;99.90;;;;;;5023889;28;20082;-71
2023/07/28 08:04:41;;;;;;;1999.90;999.90;;;21.80;99.90;;;;;;5034353;28;20384;-72
2023/07/28 08:07:06;;;;;;;1999.90;999.90;;;21.70;99.90;;;;;;5036525;28;20097;-72
2023/07/28 08:09:33;;;;;;;1999.90;999.90;;;21.70;99.90;;;;;;5038175;28;20044;-73
2023/07/28 08:12:00;;;;;;;1999.90;999.90;;;21.70;99.90;;;;;;5040721;28;20025;-72
2023/07/28 08:14:25;;;;;;;1999.90;999.90;;;21.90;99.90;;;;;;5045214;28;20029;-73
2023/07/28 08:16:51;;;;;;;1999.90;999.90;;;22.20;99.90;;;;;;5016683;28;20036;-75
2023/07/28 08:19:16;;;;;;;1999.90;999.90;;;22.20;99.90;;;;;;5049492;28;20075;-73
2023/07/28 08:21:43;;;;;;;1999.90;999.90;;;22.30;99.90;;;;;;5038576;28;20053;-73
2023/07/28 08:24:09;;;;;;;1999.90;999.90;;;22.50;99.90;;;;;;5038178;28;20100;-72
2023/07/28 08:26:34;;;;;;;1999.90;999.90;;;22.50;99.90;;;;;;5032650;28;20112;-73
2023/07/28 08:29:00;;;;;;;1999.90;999.90;;;22.60;99.90;;;;;;5033728;28;20032;-75
2023/07/28 08:31:25;;;;;;;1999.90;999.90;;;22.60;99.90;;;;;;5040477;28;20025;-75
2023/07/28 08:33:51;;;;;;;1999.90;999.90;;;22.70;99.90;;;;;;5029953;28;20041;-72
2023/07/28 08:36:17;;;;;;;1999.90;999.90;;;22.50;99.90;;;;;;5037247;28;20024;-73
2023/07/28 08:38:44;;;;;;;1999.90;999.90;;;22.30;99.90;;;;;;5038184;28;20108;-70
2023/07/28 08:41:10;;;;;;;1999.90;999.90;;;22.10;99.90;;;;;;5030634;28;20044;-70
2023/07/28 08:43:36;;;;;;;1999.90;999.90;;;21.90;99.90;;;;;;5029594;28;20033;-73
2023/07/28 08:46:03;;;;;;;1999.90;999.90;;;21.60;99.90;;;;;;5021907;28;20032;-73
2023/07/28 08:48:29;;;;;;;1999.90;999.90;;;21.40;99.90;;;;;;5035724;28;20021;-70
2023/07/28 08:50:54;;;;;;;1999.90;999.90;;;21.30;99.90;;;;;;5033144;28;20686;-70
2023/07/28 08:53:20;;;;;;;1999.90;999.90;;;21.40;99.90;;;;;;5039266;28;20033;-69
2023/07/28 08:55:45;;;;;;;1999.90;999.90;;;21.40;99.90;;;;;;5038865;28;20061;-69
2023/07/28 08:58:22;;;;;;;1999.90;999.90;;;21.30;99.90;;;;;;5030854;28;20036;-70
2023/07/28 09:00:51;;;;;;;1999.90;999.90;;;21.10;99.90;;;;;;5017154;28;20108;-69
2023/07/28 09:03:18;;;;;;;1999.90;999.90;;;21.10;99.90;;;;;;5036222;28;20059;-69
2023/07/28 09:05:46;;;;;;;1999.90;999.90;;;21.30;99.90;;;;;;5039042;28;20045;-70
2023/07/28 09:08:13;;;;;;;1999.90;999.90;;;21.50;99.90;;;;;;5037704;28;20124;-74
2023/07/28 09:10:49;;;;;;;1999.90;999.90;;;21.90;99.90;;;;;;5030778;28;20464;-74
2023/07/28 09:13:16;;;;;;;1999.90;999.90;;;22.60;99.90;;;;;;5014434;28;20029;-71
2023/07/28 09:15:42;;;;;;;1999.90;999.90;;;22.50;99.90;;;;;;5012835;28;20080;-70
2023/07/28 09:18:10;;;;;;;1999.90;999.90;;;22.20;99.90;;;;;;5029931;28;20030;-69
2023/07/28 09:20:36;;;;;;;1999.90;999.90;;;22.10;99.90;;;;;;5030040;28;20056;-70
2023/07/28 09:23:03;;;;;;;1999.90;999.90;;;21.70;99.90;;;;;;5032283;28;20484;-71
2023/07/28 09:25:33;;;;;;;1999.90;999.90;;;21.70;99.90;;;;;;5030830;28;20029;-69
2023/07/28 09:27:58;;;;;;;1999.90;999.90;;;21.80;99.90;;;;;;5004875;28;20692;-69
2023/07/28 09:30:25;;;;;;;1999.90;999.90;;;21.90;99.90;;;;;;5031075;28;20037;-70
2023/07/28 09:32:53;;;;;;;1999.90;999.90;;;22.00;99.90;;;;;;5030097;28;20029;-69
2023/07/28 09:35:20;;;;;;;1999.90;999.90;;;22.10;99.90;;;;;;5026072;28;20539;-73
2023/07/28 09:37:48;;;;;;;1999.90;999.90;;;22.20;99.90;;;;;;5029994;28;20090;-75
2023/07/28 09:40:16;;;;;;;1999.90;999.90;;;21.90;99.90;;;;;;5010377;28;20449;-70
2023/07/28 09:42:49;;;;;;;1999.90;999.90;;;21.90;99.90;;;;;;5030453;28;20106;-69
2023/07/28 09:45:18;;;;;;;1999.90;999.90;;;21.90;99.90;;;;;;5029639;28;20188;-69
2023/07/28 09:47:46;;;;;;;1999.90;999.90;;;21.80;99.90;;;;;;5030014;28;20068;-69
2023/07/28 09:50:15;;;;;;;1999.90;999.90;;;21.80;99.90;;;;;;5013791;28;20403;-73
2023/07/28 09:52:49;;;;;;;1999.90;999.90;;;21.70;99.90;;;;;;5037711;28;20630;-68
2023/07/28 09:55:16;;;;;;;1999.90;999.90;;;21.70;99.90;;;;;;5034187;28;20026;-68
2023/07/28 09:57:51;;;;;;;1999.90;999.90;;;21.70;99.90;;;;;;5033264;28;20053;-68
2023/07/28 10:00:18;;;;;;;1999.90;999.90;;;21.60;99.90;;;;;;5045743;28;20022;-69
2023/07/28 10:02:45;;;;;;;1999.90;999.90;;;21.50;99.90;;;;;;5037933;28;20120;-75
2023/07/28 10:05:10;;;;;;;1999.90;999.90;;;21.60;99.90;;;;;;5026299;28;20512;-70
2023/07/28 10:07:40;;;;;;;1999.90;999.90;;;21.50;99.90;;;;;;5034248;28;20116;-73
2023/07/28 10:10:09;;;;;;;1999.90;999.90;;;21.60;99.90;;;;;;5033007;28;20095;-69
2023/07/28 10:12:42;;;;;;;1999.90;999.90;;;21.70;99.90;;;;;;5016340;28;20060;-75
2023/07/28 10:15:11;;;;;;;1999.90;999.90;;;21.80;99.90;;;;;;5033938;28;20912;-75
2023/07/28 10:17:37;;;;;;;1999.90;999.90;;;21.80;99.90;;;;;;5025680;28;20022;-69
2023/07/28 10:20:08;;;;;;;1999.90;999.90;;;21.80;99.90;;;;;;5033308;28;20026;-70
2023/07/28 10:22:45;;;;;;;1999.90;999.90;;;22.00;99.90;;;;;;5033829;28;20029;-70
2023/07/28 10:25:11;;;;;;;1999.90;999.90;;;22.70;99.90;;;;;;5015946;28;20014;-74
2023/07/28 10:27:38;;;;;;;1999.90;999.90;;;22.90;99.90;;;;;;5045403;28;20554;-75
2023/07/28 10:30:12;;;;;;;1999.90;999.90;;;22.70;99.90;;;;;;5002472;28;20084;-70
2023/07/28 10:32:48;;;;;;;1999.90;999.90;;;22.50;99.90;;;;;;5013480;28;20045;-69
2023/07/28 10:35:14;;;;;;;1999.90;999.90;;;22.20;99.90;;;;;;5036428;28;20026;-70
2023/07/28 10:37:47;;;;;;;1999.90;999.90;;;22.10;99.90;;;;;;5042729;28;20467;-70
2023/07/28 10:40:33;;;;;;;;;;;21.90;99.90;;;;;;5043130;28;20033;-75
2023/07/28 10:42:59;;;;;;;1999.90;999.90;;;22.10;99.90;;;;;;5042079;28;20358;-70
2023/07/28 10:45:27;;;;;;;1999.90;999.90;;;22.20;99.90;;;;;;5035779;28;20097;-70
2023/07/28 10:47:55;;;;;;;1999.90;999.90;;;22.10;99.90;;;;;;5041716;28;20030;-69
2023/07/28 10:50:23;;;;;;;1999.90;999.90;;;22.10;99.90;;;;;;5035559;28;20030;-69
2023/07/28 10:52:49;;;;;;;1999.90;999.90;;;22.10;99.90;;;;;;5024755;28;20075;-76
2023/07/28 10:55:22;;;;;;;1999.90;999.90;;;21.90;99.90;;;;;;5034468;28;20026;-70
2023/07/28 10:57:49;;;;;;;1999.90;999.90;;;21.70;99.90;;;;;;5046440;28;20021;-70
2023/07/28 11:00:18;;;;;;;1999.90;999.90;;;21.90;99.90;;;;;;5045534;28;20025;-69
2023/07/28 11:02:49;;;;;;;1999.90;999.90;;;21.80;99.90;;;;;;5041849;28;20025;-69
2023/07/28 11:05:23;;;;;;;1999.90;999.90;;;22.00;99.90;;;;;;5034198;28;20064;-69
2023/07/28 11:07:50;;;;;;;1999.90;999.90;;;22.10;99.90;;;;;;5033145;28;20025;-76
2023/07/28 11:10:16;;;;;;;1999.90;999.90;;;22.10;99.90;;;;;;5034085;28;20068;-70
2023/07/28 11:12:43;;;;;;;1999.90;999.90;;;22.10;99.90;;;;;;5016136;28;20033;-70
2023/07/28 11:15:13;;;;;;;1999.90;999.90;;;22.30;99.90;;;;;;5044535;28;20040;-69
2023/07/28 11:17:40;;;;;;;1999.90;999.90;;;22.70;99.90;;;;;;5045536;28;20033;-77
2023/07/28 11:20:23;;;;;;;1999.90;999.90;;;22.90;99.90;;;;;;5036585;28;20036;-77
2023/07/28 11:22:57;;;;;;;1999.90;999.90;;;23.00;99.90;;;;;;5017131;28;20022;-71
2023/07/28 11:25:27;;;;;;;1999.90;999.90;;;23.00;99.90;;;;;;5033591;28;20037;-70
2023/07/28 11:27:53;;;;;;;1999.90;999.90;;;23.10;99.90;;;;;;5033486;28;20040;-70
2023/07/28 11:30:21;;;;;;;1999.90;999.90;;;23.50;99.90;;;;;;5015839;28;20054;-76
2023/07/28 11:32:50;;;;;;;1999.90;999.90;;;23.90;99.90;;;;;;5033601;28;20563;-70
2023/07/28 11:35:17;;;;;;;1999.90;999.90;;;24.00;99.90;;;;;;5040222;28;20389;-70
2023/07/28 11:37:47;;;;;;;1999.90;999.90;;;23.90;99.90;;;;;;5046515;28;20028;-71
2023/07/28 11:40:16;;;;;;;1999.90;999.90;;;23.30;99.90;;;;;;5044937;28;20025;-70
2023/07/28 11:42:44;;;;;;;1999.90;999.90;;;23.00;99.90;;;;;;5032974;28;20091;-69
2023/07/28 11:45:12;;;;;;;1999.90;999.90;;;23.30;99.90;;;;;;5036451;28;20033;-71
2023/07/28 11:47:37;;;;;;;1999.90;999.90;;;23.20;99.90;;;;;;5045599;28;20039;-70
2023/07/28 11:50:04;;;;;;;1999.90;999.90;;;23.20;99.90;;;;;;5033695;28;20025;-70
2023/07/28 11:52:36;;;;;;;1999.90;999.90;;;23.00;99.90;;;;;;5043312;28;20033;-71
2023/07/28 11:55:06;;;;;;;1999.90;999.90;;;23.20;99.90;;;;;;5042115;28;20109;-71
2023/07/28 11:57:32;;;;;;;1999.90;999.90;;;23.50;99.90;;;;;;5035813;28;20033;-76